createdAt,value
2017-08-15T00:01:11.165Z,101532.66
2017-08-15T00:03:39.507Z,101526.50
2017-08-15T00:06:08.442Z,101530.03
2017-08-15T00:08:36.778Z,101532.67
2017-08-15T00:11:05.525Z,101526.11
2017-08-15T00:13:33.889Z,101527.83
2017-08-15T00:16:02.231Z,101527.39
2017-08-15T00:18:30.978Z,101524.80
2017-08-15T00:20:59.376Z,101530.07
2017-08-15T00:23:27.752Z,101523.88
2017-08-15T00:25:56.095Z,101524.76
2017-08-15T00:28:24.455Z,101525.64
2017-08-15T00:30:52.795Z,101525.20
2017-08-15T00:33:21.153Z,101507.16
2017-08-15T00:35:49.491Z,101515.13
2017-08-15T00:38:17.839Z,101507.65
2017-08-15T00:40:46.582Z,101511.17
2017-08-15T00:43:15.072Z,101506.38
2017-08-15T00:45:43.417Z,101507.21
2017-08-15T00:48:11.760Z,101499.73
2017-08-15T00:50:40.115Z,101501.05
2017-08-15T00:53:08.468Z,101496.66
2017-08-15T00:55:36.825Z,101491.41
2017-08-15T00:58:05.180Z,101491.86
2017-08-15T01:00:33.541Z,101494.50
2017-08-15T01:03:01.887Z,101494.50
2017-08-15T01:05:30.238Z,101488.34
2017-08-15T01:07:58.575Z,101487.02
2017-08-15T01:10:27.135Z,101487.90
2017-08-15T01:12:55.475Z,101488.38
2017-08-15T01:15:24.232Z,101489.70
2017-08-15T01:17:52.601Z,101489.66
2017-08-15T01:20:20.971Z,101493.66
2017-08-15T01:22:49.337Z,101477.37
2017-08-15T01:25:17.687Z,101472.98
2017-08-15T01:27:46.056Z,101480.02
2017-08-15T01:30:14.796Z,101476.94
2017-08-15T01:32:43.370Z,101477.82
2017-08-15T01:35:11.728Z,101468.62
2017-08-15T01:37:48.907Z,101472.13
2017-08-15T01:40:17.270Z,101471.69
2017-08-15T01:42:46.022Z,101462.43
2017-08-15T01:45:14.388Z,101463.78
2017-08-15T01:47:42.735Z,101462.02
2017-08-15T01:50:11.090Z,101465.09
2017-08-15T01:52:39.841Z,101458.94
2017-08-15T01:55:08.189Z,101462.90
2017-08-15T01:57:36.539Z,101468.61
2017-08-15T02:00:05.287Z,101470.81
2017-08-15T02:02:33.668Z,101466.00
2017-08-15T02:05:02.018Z,101463.36
2017-08-15T02:07:30.359Z,101473.05
2017-08-15T02:09:59.108Z,101466.02
2017-08-15T02:12:27.469Z,101467.78
2017-08-15T02:14:55.825Z,101463.82
2017-08-15T02:17:24.188Z,101459.86
2017-08-15T02:19:52.940Z,101464.25
2017-08-15T02:22:21.287Z,101452.83
2017-08-15T02:24:49.691Z,101451.07
2017-08-15T02:27:18.076Z,101452.81
2017-08-15T02:29:46.422Z,101443.58
2017-08-15T02:32:14.771Z,101444.02
2017-08-15T02:34:43.524Z,101447.09
2017-08-15T02:37:11.900Z,101443.58
2017-08-15T02:39:40.256Z,101440.06
2017-08-15T02:42:08.669Z,101436.12
2017-08-15T02:44:37.023Z,101440.94
2017-08-15T02:47:05.359Z,101433.47
2017-08-15T02:49:34.110Z,101435.68
2017-08-15T02:52:02.447Z,101434.78
2017-08-15T02:54:30.804Z,101431.70
2017-08-15T02:56:59.539Z,101434.33
2017-08-15T02:59:27.891Z,101427.31
2017-08-15T03:01:56.239Z,101428.62
2017-08-15T03:04:24.600Z,101428.18
2017-08-15T03:06:52.948Z,101424.66
2017-08-15T03:09:21.307Z,101429.50
2017-08-15T03:11:49.671Z,101429.50
2017-08-15T03:14:18.407Z,101425.55
2017-08-15T03:16:46.768Z,101435.65
2017-08-15T03:19:15.116Z,101426.86
2017-08-15T03:21:44.107Z,101434.77
2017-08-15T03:24:12.856Z,101429.06
2017-08-15T03:26:41.223Z,101424.23
2017-08-15T03:29:09.580Z,101424.23
2017-08-15T03:31:37.943Z,101433.00
2017-08-15T03:34:06.693Z,101429.94
2017-08-15T03:36:35.058Z,101431.25
2017-08-15T03:39:03.416Z,101426.41
2017-08-15T03:41:31.914Z,101428.15
2017-08-15T03:44:00.273Z,101434.72
2017-08-15T03:46:28.623Z,101430.37
2017-08-15T03:48:57.372Z,101434.75
2017-08-15T03:51:25.749Z,101432.53
2017-08-15T03:53:54.108Z,101428.58
2017-08-15T03:56:22.463Z,101422.00
2017-08-15T03:58:50.815Z,101425.94
2017-08-15T04:01:19.173Z,101421.55
2017-08-15T04:03:47.522Z,101426.83
2017-08-15T04:06:15.876Z,101431.67
2017-08-15T04:08:44.281Z,101434.71
2017-08-15T04:11:12.642Z,101434.73
2017-08-15T04:13:41.120Z,101440.84
2017-08-15T04:16:09.463Z,101445.70
2017-08-15T04:18:37.811Z,101439.11
2017-08-15T04:21:06.174Z,101437.80
2017-08-15T04:23:34.524Z,101439.12
2017-08-15T04:26:03.267Z,101445.72
2017-08-15T04:28:31.625Z,101435.64
2017-08-15T04:30:59.984Z,101445.34
2017-08-15T04:33:28.408Z,101444.92
2017-08-15T04:35:57.079Z,101437.80
2017-08-15T04:38:25.436Z,101438.07
2017-08-15T04:40:53.785Z,101434.08
2017-08-15T04:43:22.140Z,101424.75
2017-08-15T04:45:50.483Z,101424.41
2017-08-15T04:48:18.832Z,101425.95
2017-08-15T04:50:47.575Z,101422.18
2017-08-15T04:53:15.932Z,101421.06
2017-08-15T04:55:44.271Z,101426.78
2017-08-15T04:58:13.230Z,101429.19
2017-08-15T05:00:41.856Z,101426.55
2017-08-15T05:03:10.586Z,101425.70
2017-08-15T05:05:38.949Z,101429.51
2017-08-15T05:08:07.295Z,101424.40
2017-08-15T05:10:36.047Z,101426.37
2017-08-15T05:13:04.386Z,101411.91
2017-08-15T05:15:32.733Z,101411.97
2017-08-15T05:18:01.070Z,101421.39
2017-08-15T05:20:29.440Z,101408.77
2017-08-15T05:22:57.792Z,101413.27
2017-08-15T05:25:26.772Z,101418.00
2017-08-15T05:27:55.507Z,101421.25
2017-08-15T05:30:24.213Z,101424.53
2017-08-15T05:32:52.589Z,101420.41
2017-08-15T05:35:20.951Z,101421.77
2017-08-15T05:37:49.298Z,101425.02
2017-08-15T05:40:18.036Z,101415.63
2017-08-15T05:42:46.405Z,101420.86
2017-08-15T05:45:14.746Z,101417.84
2017-08-15T05:47:43.500Z,101427.08
2017-08-15T05:50:11.839Z,101418.41
2017-08-15T05:52:40.307Z,101424.75
2017-08-15T05:55:08.654Z,101421.66
2017-08-15T05:57:37.087Z,101418.19
2017-08-15T06:00:05.448Z,101413.45
2017-08-15T06:02:33.796Z,101402.67
2017-08-15T06:05:02.139Z,101405.89
2017-08-15T06:07:30.520Z,101400.79
2017-08-15T06:09:59.087Z,101396.32
2017-08-15T06:12:27.427Z,101390.45
2017-08-15T06:14:56.272Z,101393.30
2017-08-15T06:17:24.634Z,101389.91
2017-08-15T06:19:52.978Z,101397.15
2017-08-15T06:22:21.727Z,101381.70
2017-08-15T06:24:50.063Z,101382.61
2017-08-15T06:27:18.418Z,101380.93
2017-08-15T06:29:47.154Z,101379.44
2017-08-15T06:32:15.943Z,101377.64
2017-08-15T06:34:44.286Z,101383.31
2017-08-15T06:37:12.716Z,101375.38
2017-08-15T06:39:41.070Z,101385.20
2017-08-15T06:42:09.428Z,101378.38
2017-08-15T06:44:37.783Z,101380.23
2017-08-15T06:47:06.131Z,101381.92
2017-08-15T06:49:35.522Z,101377.53
2017-08-15T06:52:03.904Z,101371.73
2017-08-15T06:54:32.294Z,101369.09
2017-08-15T06:57:00.648Z,101368.22
2017-08-15T06:59:28.991Z,101370.08
2017-08-15T07:01:57.736Z,101367.08
2017-08-15T07:04:26.089Z,101363.08
2017-08-15T07:06:54.452Z,101365.60
2017-08-15T07:09:22.790Z,101362.19
2017-08-15T07:11:51.139Z,101347.70
2017-08-15T07:14:19.483Z,101346.77
2017-08-15T07:16:47.840Z,101344.46
2017-08-15T07:19:16.193Z,101348.03
2017-08-15T07:21:44.548Z,101359.86
2017-08-15T07:24:12.936Z,101355.50
2017-08-15T07:26:41.414Z,101351.11
2017-08-15T07:29:09.764Z,101351.12
2017-08-15T07:31:38.433Z,101345.61
2017-08-15T07:34:07.285Z,101337.06
2017-08-15T07:36:35.633Z,101332.59
2017-08-15T07:39:03.987Z,101337.45
2017-08-15T07:41:32.341Z,101337.20
2017-08-15T07:44:00.705Z,101335.47
2017-08-15T07:46:29.059Z,101333.84
2017-08-15T07:48:57.410Z,101336.48
2017-08-15T07:51:26.153Z,101327.91
2017-08-15T07:53:54.620Z,101317.88
2017-08-15T07:56:22.960Z,101320.38
2017-08-15T07:58:51.389Z,101331.61
2017-08-15T08:01:19.750Z,101318.80
2017-08-15T08:03:48.100Z,101326.09
2017-08-15T08:06:16.857Z,101319.06
2017-08-15T08:08:45.206Z,101317.34
2017-08-15T08:11:13.564Z,101321.63
2017-08-15T08:13:41.958Z,101310.41
2017-08-15T08:16:10.316Z,101303.28
2017-08-15T08:18:38.655Z,101306.27
2017-08-15T08:21:07.017Z,101305.84
2017-08-15T08:23:35.364Z,101305.13
2017-08-15T08:26:03.864Z,101299.70
2017-08-15T08:28:32.207Z,101303.91
2017-08-15T08:31:00.562Z,101305.50
2017-08-15T08:33:29.008Z,101293.66
2017-08-15T08:35:57.366Z,101294.66
2017-08-15T08:38:25.736Z,101301.29
2017-08-15T08:40:54.101Z,101297.96
2017-08-15T08:43:22.464Z,101305.18
2017-08-15T08:45:50.815Z,101301.69
2017-08-15T08:48:19.477Z,101295.67
2017-08-15T08:50:47.824Z,101293.98
2017-08-15T08:53:16.180Z,101291.91
2017-08-15T08:55:44.542Z,101291.55
2017-08-15T08:58:12.897Z,101286.33
2017-08-15T09:00:41.249Z,101272.12
2017-08-15T09:03:09.587Z,101271.42
2017-08-15T09:05:38.135Z,101276.22
2017-08-15T09:08:06.488Z,101275.81
2017-08-15T09:10:34.845Z,101271.19
2017-08-15T09:13:03.590Z,101268.65
2017-08-15T09:15:31.942Z,101291.83
2017-08-15T09:18:00.294Z,101280.77
2017-08-15T09:20:29.036Z,101281.80
2017-08-15T09:22:58.375Z,101281.52
2017-08-15T09:25:27.114Z,101289.73
2017-08-15T09:27:55.584Z,101281.73
2017-08-15T09:30:23.928Z,101287.76
2017-08-15T09:32:52.474Z,101288.08
2017-08-15T09:35:20.816Z,101289.38
2017-08-15T09:37:49.164Z,101299.31
2017-08-15T09:40:17.524Z,101294.72
2017-08-15T09:42:45.878Z,101292.19
2017-08-15T09:45:14.244Z,101296.72
2017-08-15T09:47:43.523Z,101295.13
2017-08-15T09:50:11.884Z,101297.00
2017-08-15T09:52:40.236Z,101295.31
2017-08-15T09:55:08.848Z,101280.73
2017-08-15T09:57:37.578Z,101284.83
2017-08-15T10:00:05.946Z,101282.21
2017-08-15T10:02:34.295Z,101276.69
2017-08-15T10:05:03.035Z,101280.08
2017-08-15T10:07:31.405Z,101282.13
2017-08-15T10:10:00.148Z,101271.52
2017-08-15T10:12:28.897Z,101266.71
2017-08-15T10:14:58.927Z,101252.73
2017-08-15T10:17:27.291Z,101258.21
2017-08-15T10:19:55.631Z,101253.48
2017-08-15T10:22:23.979Z,101241.17
2017-08-15T10:24:52.410Z,101234.70
2017-08-15T10:27:21.166Z,101237.66
2017-08-15T10:29:50.150Z,101236.84
2017-08-15T10:32:18.513Z,101235.80
2017-08-15T10:34:46.864Z,101239.80
2017-08-15T10:37:15.447Z,101242.87
2017-08-15T10:39:43.792Z,101243.36
2017-08-15T10:42:12.537Z,101235.88
2017-08-15T10:44:40.882Z,101241.53
2017-08-15T10:47:09.235Z,101243.18
2017-08-15T10:49:37.980Z,101242.71
2017-08-15T10:52:06.328Z,101246.11
2017-08-15T10:54:34.679Z,101245.41
2017-08-15T10:57:03.420Z,101242.54
2017-08-15T10:59:31.771Z,101247.88
2017-08-15T11:02:00.120Z,101245.24
2017-08-15T11:04:28.854Z,101253.86
2017-08-15T11:06:57.199Z,101248.53
2017-08-15T11:09:25.543Z,101242.47
2017-08-15T11:11:53.904Z,101242.68
2017-08-15T11:14:22.257Z,101233.36
2017-08-15T11:16:50.599Z,101226.13
2017-08-15T11:19:18.956Z,101216.98
2017-08-15T11:21:47.318Z,101219.89
2017-08-15T11:24:15.668Z,101212.40
2017-08-15T11:26:44.014Z,101211.05
2017-08-15T11:29:12.355Z,101212.44
2017-08-15T11:31:40.713Z,101209.77
2017-08-15T11:34:09.046Z,101204.62
2017-08-15T11:36:37.795Z,101199.80
2017-08-15T11:39:06.144Z,101218.95
2017-08-15T11:41:34.661Z,101203.14
2017-08-15T11:44:03.028Z,101200.70
2017-08-15T11:46:31.385Z,101196.98
2017-08-15T11:48:59.751Z,101192.87
2017-08-15T11:51:28.096Z,101186.23
2017-08-15T11:53:56.518Z,101191.87
2017-08-15T11:56:24.855Z,101196.02
2017-08-15T11:58:53.217Z,101197.91
2017-08-15T12:01:21.561Z,101208.16
2017-08-15T12:03:49.919Z,101198.98
2017-08-15T12:06:18.266Z,101193.09
2017-08-15T12:08:46.713Z,101186.86
2017-08-15T12:11:15.072Z,101179.13
2017-08-15T12:13:43.415Z,101171.72
2017-08-15T12:16:11.771Z,101162.42
2017-08-15T12:18:40.128Z,101166.39
2017-08-15T12:21:08.480Z,101163.77
2017-08-15T12:23:36.822Z,101160.14
2017-08-15T12:26:05.170Z,101160.93
2017-08-15T12:28:33.519Z,101159.30
2017-08-15T12:31:02.030Z,101165.03
2017-08-15T12:33:30.384Z,101162.69
2017-08-15T12:35:58.733Z,101156.55
2017-08-15T12:38:27.096Z,101143.74
2017-08-15T12:40:55.435Z,101144.20
2017-08-15T12:43:23.796Z,101155.43
2017-08-15T12:45:52.131Z,101144.77
2017-08-15T12:48:20.690Z,101138.11
2017-08-15T12:50:49.023Z,101138.87
2017-08-15T12:53:17.767Z,101129.98
2017-08-15T12:55:46.128Z,101137.12
2017-08-15T12:58:14.525Z,101121.08
2017-08-15T13:00:42.887Z,101112.12
2017-08-15T13:03:11.275Z,101104.19
2017-08-15T13:05:39.640Z,101103.23
2017-08-15T13:08:07.991Z,101101.22
2017-08-15T13:10:36.750Z,101100.77
2017-08-15T13:13:05.095Z,101096.03
2017-08-15T13:15:33.438Z,101086.61
2017-08-15T13:18:02.182Z,101089.38
2017-08-15T13:20:30.530Z,101085.59
2017-08-15T13:22:58.889Z,101092.19
2017-08-15T13:25:27.248Z,101073.22
2017-08-15T13:27:56.111Z,101081.32
2017-08-15T13:30:24.460Z,101077.55
2017-08-15T13:32:52.818Z,101067.53
2017-08-15T13:35:21.704Z,101064.90
2017-08-15T13:37:50.053Z,101066.69
2017-08-15T13:40:18.411Z,101052.74
2017-08-15T13:42:46.751Z,101056.98
2017-08-15T13:45:15.103Z,101056.98
2017-08-15T13:47:43.848Z,101054.98
2017-08-15T13:50:12.213Z,101053.20
2017-08-15T13:52:40.563Z,101059.75
2017-08-15T13:55:09.343Z,101057.16
2017-08-15T13:57:38.101Z,101069.25
2017-08-15T14:00:06.454Z,101076.86
2017-08-15T14:02:34.794Z,101066.61
2017-08-15T14:05:03.143Z,101060.29
2017-08-15T14:07:31.787Z,101057.60
2017-08-15T14:10:00.127Z,101056.28
2017-08-15T14:12:28.880Z,101066.99
2017-08-15T14:14:57.224Z,101059.11
2017-08-15T14:17:25.693Z,101056.36
2017-08-15T14:19:54.044Z,101050.29
2017-08-15T14:22:22.392Z,101052.33
2017-08-15T14:24:50.752Z,101053.53
2017-08-15T14:27:19.095Z,101057.63
2017-08-15T14:29:47.845Z,101050.87
2017-08-15T14:32:16.192Z,101061.40
2017-08-15T14:34:44.547Z,101049.91
2017-08-15T14:37:12.890Z,101050.14
2017-08-15T14:39:41.562Z,101040.69
2017-08-15T14:42:10.024Z,101035.78
2017-08-15T14:44:38.372Z,101034.78
2017-08-15T14:47:07.118Z,101038.16
2017-08-15T14:49:35.476Z,101030.63
2017-08-15T14:52:03.845Z,101027.84
2017-08-15T14:54:32.199Z,101031.68
2017-08-15T14:57:01.141Z,101026.34
2017-08-15T14:59:29.602Z,101028.16
2017-08-15T15:01:57.955Z,101026.21
2017-08-15T15:04:26.319Z,101025.09
2017-08-15T15:06:55.068Z,101023.27
2017-08-15T15:09:23.430Z,101033.11
2017-08-15T15:11:51.788Z,101030.47
2017-08-15T15:14:20.162Z,101033.59
2017-08-15T15:16:48.495Z,101025.52
2017-08-15T15:19:16.857Z,101024.23
2017-08-15T15:21:45.203Z,101022.05
2017-08-15T15:24:13.667Z,101020.28
2017-08-15T15:26:42.425Z,101023.62
2017-08-15T15:29:10.771Z,101018.05
2017-08-15T15:31:39.137Z,101010.94
2017-08-15T15:34:07.482Z,101011.20
2017-08-15T15:36:35.853Z,101007.99
2017-08-15T15:39:04.210Z,101001.74
2017-08-15T15:41:32.797Z,101000.84
2017-08-15T15:44:01.161Z,100997.97
2017-08-15T15:46:29.513Z,100991.77
2017-08-15T15:48:57.906Z,100995.72
2017-08-15T15:51:26.268Z,100989.69
2017-08-15T15:53:54.642Z,100991.89
2017-08-15T15:56:23.009Z,100983.77
2017-08-15T15:58:51.759Z,100986.67
2017-08-15T16:01:20.103Z,100980.41
2017-08-15T16:03:48.474Z,100976.77
2017-08-15T16:06:17.140Z,100983.97
2017-08-15T16:08:46.004Z,100980.89
2017-08-15T16:11:14.627Z,100978.51
2017-08-15T16:13:42.970Z,100974.52
2017-08-15T16:16:11.331Z,100973.78
2017-08-15T16:18:39.679Z,100986.27
2017-08-15T16:21:08.034Z,100984.79
2017-08-15T16:23:36.379Z,100983.31
2017-08-15T16:26:04.734Z,100982.63
2017-08-15T16:28:33.094Z,100985.45
2017-08-15T16:31:01.513Z,100977.69
2017-08-15T16:33:29.879Z,100982.72
2017-08-15T16:35:58.347Z,100979.20
2017-08-15T16:38:26.699Z,100978.34
2017-08-15T16:40:55.046Z,100976.34
2017-08-15T16:43:23.398Z,100968.92
2017-08-15T16:45:51.747Z,100981.09
2017-08-15T16:48:20.122Z,100980.80
2017-08-15T16:50:48.484Z,100981.69
2017-08-15T16:53:17.249Z,100978.63
2017-08-15T16:55:45.604Z,100977.30
2017-08-15T16:58:13.960Z,100977.94
2017-08-15T17:00:42.303Z,100974.86
2017-08-15T17:03:11.055Z,100980.23
2017-08-15T17:05:39.403Z,100976.95
2017-08-15T17:08:07.747Z,100974.31
2017-08-15T17:10:36.102Z,100977.16
2017-08-15T17:13:04.447Z,100969.71
2017-08-15T17:15:32.817Z,100965.69
2017-08-15T17:18:01.169Z,100958.30
2017-08-15T17:20:29.994Z,100954.48
2017-08-15T17:22:58.344Z,100951.27
2017-08-15T17:25:27.871Z,100950.59
2017-08-15T17:27:56.224Z,100946.77
2017-08-15T17:30:24.958Z,100941.91
2017-08-15T17:32:53.317Z,100942.63
2017-08-15T17:35:21.664Z,100931.61
2017-08-15T17:37:50.012Z,100925.61
2017-08-15T17:40:18.354Z,100916.41
2017-08-15T17:42:46.855Z,100912.03
2017-08-15T17:45:15.195Z,100908.00
2017-08-15T17:47:43.939Z,100907.65
2017-08-15T17:50:12.563Z,100904.53
2017-08-15T17:52:41.299Z,100905.34
2017-08-15T17:55:09.669Z,100897.46
2017-08-15T17:57:38.067Z,100900.09
2017-08-15T18:00:06.445Z,100893.52
2017-08-15T18:02:34.829Z,100892.44
2017-08-15T18:05:03.181Z,100893.94
2017-08-15T18:07:31.519Z,100889.45
2017-08-15T18:10:00.487Z,100889.89
2017-08-15T18:12:29.095Z,100897.20
2017-08-15T18:14:57.847Z,100897.02
2017-08-15T18:17:26.206Z,100894.28
2017-08-15T18:19:54.554Z,100904.33
2017-08-15T18:22:23.310Z,100897.64
2017-08-15T18:24:51.664Z,100902.59
2017-08-15T18:27:20.018Z,100897.59
2017-08-15T18:29:48.364Z,100896.68
2017-08-15T18:32:17.120Z,100903.05
2017-08-15T18:34:45.472Z,100900.33
2017-08-15T18:37:13.816Z,100901.69
2017-08-15T18:39:42.568Z,100903.59
2017-08-15T18:42:11.192Z,100902.34
2017-08-15T18:44:39.938Z,100895.76
2017-08-15T18:47:08.282Z,100899.88
2017-08-15T18:49:36.653Z,100898.30
2017-08-15T18:52:05.387Z,100900.35
2017-08-15T18:54:33.738Z,100899.22
2017-08-15T18:57:02.101Z,100905.40
2017-08-15T18:59:30.447Z,100906.27
2017-08-15T19:01:58.806Z,100899.92
2017-08-15T19:04:27.156Z,100898.15
2017-08-15T19:06:55.514Z,100901.42
2017-08-15T19:09:24.184Z,100897.61
2017-08-15T19:11:52.936Z,100903.02
2017-08-15T19:14:21.289Z,100906.37
2017-08-15T19:16:49.993Z,100891.03
2017-08-15T19:19:18.345Z,100895.40
2017-08-15T19:21:46.687Z,100887.05
2017-08-15T19:24:15.128Z,100891.88
2017-08-15T19:26:43.472Z,100898.69
2017-08-15T19:29:12.245Z,100896.89
2017-08-15T19:31:40.610Z,100895.95
2017-08-15T19:34:09.044Z,100894.00
2017-08-15T19:36:37.382Z,100897.80
2017-08-15T19:39:06.131Z,100890.51
2017-08-15T19:41:34.489Z,100889.16
2017-08-15T19:44:02.965Z,100891.73
2017-08-15T19:46:31.314Z,100888.56
2017-08-15T19:49:00.052Z,100894.65
2017-08-15T19:51:28.407Z,100892.51
2017-08-15T19:53:56.747Z,100890.24
2017-08-15T19:56:25.108Z,100895.00
2017-08-15T19:58:53.449Z,100891.42
2017-08-15T20:01:21.809Z,100882.92
2017-08-15T20:03:50.543Z,100895.64
2017-08-15T20:06:18.908Z,100894.53
2017-08-15T20:08:47.262Z,100897.87
2017-08-15T20:11:15.624Z,100899.83
2017-08-15T20:13:44.368Z,100905.27
2017-08-15T20:16:12.724Z,100900.61
2017-08-15T20:18:41.072Z,100899.98
2017-08-15T20:21:10.020Z,100905.53
2017-08-15T20:23:38.376Z,100903.91
2017-08-15T20:26:06.717Z,100901.89
2017-08-15T20:28:35.473Z,100898.46
2017-08-15T20:31:04.082Z,100897.36
2017-08-15T20:33:32.848Z,100891.55
2017-08-15T20:36:01.188Z,100894.87
2017-08-15T20:38:29.548Z,100884.94
2017-08-15T20:40:58.293Z,100890.07
2017-08-15T20:43:26.655Z,100888.52
2017-08-15T20:45:54.995Z,100887.77
2017-08-15T20:48:23.365Z,100886.66
2017-08-15T20:50:52.106Z,100885.76
2017-08-15T20:53:20.468Z,100888.92
2017-08-15T20:55:48.816Z,100893.00
2017-08-15T20:58:17.572Z,100883.99
2017-08-15T21:00:46.348Z,100883.27
2017-08-15T21:03:14.815Z,100887.61
2017-08-15T21:05:43.159Z,100890.43
2017-08-15T21:08:11.898Z,100892.66
2017-08-15T21:10:40.268Z,100881.30
2017-08-15T21:13:08.612Z,100893.64
2017-08-15T21:15:37.022Z,100893.91
2017-08-15T21:18:05.375Z,100895.41
2017-08-15T21:20:33.726Z,100887.70
2017-08-15T21:23:02.067Z,100892.27
2017-08-15T21:25:30.421Z,100889.25
2017-08-15T21:27:58.766Z,100892.94
2017-08-15T21:30:27.598Z,100890.05
2017-08-15T21:32:55.939Z,100897.55
2017-08-15T21:35:24.700Z,100894.14
2017-08-15T21:37:53.310Z,100894.17
2017-08-15T21:40:22.455Z,100902.92
2017-08-15T21:42:50.805Z,100900.75
2017-08-15T21:45:19.152Z,100902.89
2017-08-15T21:47:47.503Z,100904.89
2017-08-15T21:50:15.847Z,100901.59
2017-08-15T21:52:44.199Z,100906.22
2017-08-15T21:55:12.945Z,100903.67
2017-08-15T21:57:41.309Z,100904.92
2017-08-15T22:00:09.647Z,100911.67
2017-08-15T22:02:38.390Z,100906.58
2017-08-15T22:05:07.623Z,100908.45
2017-08-15T22:07:35.987Z,100912.78
2017-08-15T22:10:04.332Z,100914.80
2017-08-15T22:12:32.674Z,100920.20
2017-08-15T22:15:01.416Z,100916.40
2017-08-15T22:17:29.768Z,100921.10
2017-08-15T22:19:58.120Z,100915.64
2017-08-15T22:22:26.864Z,100919.67
2017-08-15T22:24:55.215Z,100920.80
2017-08-15T22:27:23.594Z,100912.41
2017-08-15T22:29:51.934Z,100916.13
2017-08-15T22:32:20.275Z,100914.80
2017-08-15T22:34:48.633Z,100911.13
2017-08-15T22:37:16.971Z,100905.71
2017-08-15T22:39:45.328Z,100901.37
2017-08-15T22:42:13.675Z,100897.29
2017-08-15T22:44:42.028Z,100893.31
2017-08-15T22:47:10.768Z,100894.92
2017-08-15T22:49:39.132Z,100889.41
2017-08-15T22:52:07.467Z,100897.48
2017-08-15T22:54:36.402Z,100892.41
2017-08-15T22:57:04.747Z,100896.42
2017-08-15T22:59:33.096Z,100899.58
2017-08-15T23:02:01.442Z,100895.00
2017-08-15T23:04:29.786Z,100896.17
2017-08-15T23:06:58.131Z,100908.19
2017-08-15T23:09:26.475Z,100908.03
2017-08-15T23:11:54.837Z,100908.37
2017-08-15T23:14:23.175Z,100907.51
2017-08-15T23:16:51.528Z,100907.30
2017-08-15T23:19:19.884Z,100903.91
2017-08-15T23:21:48.230Z,100913.00
2017-08-15T23:24:16.966Z,100910.53
2017-08-15T23:26:45.329Z,100908.71
2017-08-15T23:29:13.705Z,100904.77
2017-08-15T23:31:42.047Z,100911.67
2017-08-15T23:34:10.800Z,100897.31
2017-08-15T23:36:39.358Z,100897.80
2017-08-15T23:39:07.704Z,100894.98
2017-08-15T23:41:36.447Z,100899.11
2017-08-15T23:44:04.859Z,100895.03
2017-08-15T23:46:33.300Z,100887.36
2017-08-15T23:49:01.918Z,100895.95
2017-08-15T23:51:30.292Z,100897.14
2017-08-15T23:53:58.644Z,100898.63
2017-08-15T23:56:26.978Z,100902.02
2017-08-15T23:58:55.399Z,100900.45
